createdAt,value
2018-09-15T00:01:28.211Z,7.63
2018-09-15T00:03:56.568Z,8.00
2018-09-15T00:06:24.918Z,8.03
2018-09-15T00:08:53.264Z,7.80
2018-09-15T00:11:21.640Z,8.80
2018-09-15T00:13:49.981Z,7.53
2018-09-15T00:16:18.353Z,10.27
2018-09-15T00:18:46.682Z,10.80
2018-09-15T00:21:15.095Z,9.93
2018-09-15T00:23:43.432Z,10.07
2018-09-15T00:26:11.813Z,9.10
2018-09-15T00:28:40.158Z,11.00
2018-09-15T00:31:08.500Z,11.30
2018-09-15T00:33:36.852Z,12.77
2018-09-15T00:36:05.236Z,12.83
2018-09-15T00:38:33.583Z,11.70
2018-09-15T00:41:01.956Z,12.10
2018-09-15T00:43:30.307Z,15.07
2018-09-15T00:45:58.672Z,11.97
2018-09-15T00:48:27.006Z,10.40
2018-09-15T00:50:55.372Z,12.40
2018-09-15T00:53:23.698Z,13.17
2018-09-15T00:55:52.051Z,12.73
2018-09-15T00:58:20.382Z,13.17
2018-09-15T01:00:49.304Z,12.30
2018-09-15T01:03:17.627Z,13.87
2018-09-15T01:05:45.979Z,12.07
2018-09-15T01:08:14.318Z,13.40
2018-09-15T01:10:42.688Z,10.63
2018-09-15T01:13:11.027Z,11.00
2018-09-15T01:15:39.375Z,11.70
2018-09-15T01:18:07.734Z,11.77
2018-09-15T01:20:36.096Z,10.83
2018-09-15T01:23:04.837Z,11.07
2018-09-15T01:25:33.216Z,11.17
2018-09-15T01:28:01.575Z,9.93
2018-09-15T01:30:29.937Z,10.43
2018-09-15T01:32:58.291Z,11.23
2018-09-15T01:35:26.637Z,8.50
2018-09-15T01:37:55.035Z,9.47
2018-09-15T01:40:23.370Z,9.07
2018-09-15T01:42:51.719Z,8.20
2018-09-15T01:45:20.080Z,7.53
2018-09-15T01:47:48.427Z,8.73
2018-09-15T01:50:16.807Z,9.63
2018-09-15T01:52:45.155Z,11.20
2018-09-15T01:55:13.496Z,10.20
2018-09-15T01:57:41.893Z,10.17
2018-09-15T02:00:10.248Z,9.40
2018-09-15T02:02:38.811Z,9.53
2018-09-15T02:05:07.255Z,11.87
2018-09-15T02:07:37.463Z,10.47
2018-09-15T02:10:05.868Z,9.03
2018-09-15T02:12:34.265Z,12.10
2018-09-15T02:15:02.623Z,10.33
2018-09-15T02:17:30.995Z,11.83
2018-09-15T02:19:59.336Z,12.83
2018-09-15T02:22:27.729Z,12.63
2018-09-15T02:24:56.172Z,11.60
2018-09-15T02:27:24.524Z,11.83
2018-09-15T02:29:52.909Z,11.77
2018-09-15T02:32:21.250Z,10.60
2018-09-15T02:34:49.643Z,13.07
2018-09-15T02:37:17.969Z,14.63
2018-09-15T02:39:46.327Z,11.00
2018-09-15T02:42:14.688Z,12.27
2018-09-15T02:44:43.152Z,10.67
2018-09-15T02:47:11.590Z,12.93
2018-09-15T02:49:39.998Z,12.00
2018-09-15T02:52:08.385Z,10.83
2018-09-15T02:54:36.867Z,11.30
2018-09-15T02:57:05.488Z,10.63
2018-09-15T02:59:33.908Z,10.53
2018-09-15T03:02:02.249Z,13.30
2018-09-15T03:04:30.620Z,9.53
2018-09-15T03:06:58.972Z,9.83
2018-09-15T03:09:27.333Z,9.10
2018-09-15T03:11:55.693Z,11.27
2018-09-15T03:14:24.059Z,9.73
2018-09-15T03:16:52.391Z,7.83
2018-09-15T03:19:20.760Z,10.23
2018-09-15T03:21:49.083Z,8.47
2018-09-15T03:24:17.455Z,9.43
2018-09-15T03:26:46.094Z,6.70
2018-09-15T03:29:14.486Z,8.77
2018-09-15T03:31:42.839Z,7.30
2018-09-15T03:34:11.204Z,6.43
2018-09-15T03:36:39.544Z,8.80
2018-09-15T03:39:09.682Z,8.27
2018-09-15T03:41:38.101Z,6.17
2018-09-15T03:44:06.383Z,8.53
2018-09-15T03:46:34.723Z,6.60
2018-09-15T03:49:03.251Z,6.10
2018-09-15T03:51:31.564Z,7.13
2018-09-15T03:53:59.900Z,7.13
2018-09-15T03:56:28.251Z,5.97
2018-09-15T03:58:56.581Z,6.87
2018-09-15T04:01:24.982Z,5.77
2018-09-15T04:03:53.283Z,7.10
2018-09-15T04:06:21.608Z,8.10
2018-09-15T04:08:49.941Z,7.17
2018-09-15T04:11:18.299Z,8.27
2018-09-15T04:13:46.659Z,5.97
2018-09-15T04:16:14.990Z,6.97
2018-09-15T04:18:43.326Z,5.73
2018-09-15T04:21:11.672Z,5.57
2018-09-15T04:23:39.996Z,7.83
2018-09-15T04:26:08.580Z,6.57
2018-09-15T04:28:37.035Z,5.53
2018-09-15T04:31:05.405Z,6.80
2018-09-15T04:33:33.737Z,7.07
2018-09-15T04:36:02.093Z,7.53
2018-09-15T04:38:30.431Z,5.83
2018-09-15T04:40:58.772Z,8.53
2018-09-15T04:43:27.119Z,6.17
2018-09-15T04:45:55.452Z,6.07
2018-09-15T04:48:23.768Z,8.20
2018-09-15T04:50:52.183Z,7.20
2018-09-15T04:53:20.558Z,6.87
2018-09-15T04:55:48.904Z,8.90
2018-09-15T04:58:17.275Z,7.17
2018-09-15T05:00:45.640Z,5.63
2018-09-15T05:03:13.984Z,7.37
2018-09-15T05:05:42.334Z,6.20
2018-09-15T05:08:10.685Z,10.53
2018-09-15T05:10:39.022Z,7.33
2018-09-15T05:13:07.379Z,7.20
2018-09-15T05:15:35.702Z,9.83
2018-09-15T05:18:04.056Z,7.13
2018-09-15T05:20:32.384Z,9.17
2018-09-15T05:23:00.759Z,6.73
2018-09-15T05:25:29.094Z,7.37
2018-09-15T05:27:57.556Z,8.87
2018-09-15T05:30:26.133Z,9.67
2018-09-15T05:32:54.462Z,8.83
2018-09-15T05:35:22.784Z,7.67
2018-09-15T05:37:51.116Z,12.90
2018-09-15T05:40:19.434Z,10.30
2018-09-15T05:42:47.820Z,8.00
2018-09-15T05:45:16.140Z,8.57
2018-09-15T05:47:44.485Z,8.20
2018-09-15T05:50:12.801Z,8.40
2018-09-15T05:52:41.150Z,9.43
2018-09-15T05:55:09.456Z,9.53
2018-09-15T05:57:37.787Z,9.47
2018-09-15T06:00:06.153Z,9.37
2018-09-15T06:02:34.561Z,10.53
2018-09-15T06:05:03.000Z,11.37
2018-09-15T06:07:31.347Z,11.03
2018-09-15T06:09:59.697Z,10.70
2018-09-15T06:12:28.397Z,8.33
2018-09-15T06:14:56.732Z,10.33
2018-09-15T06:17:25.074Z,11.20
2018-09-15T06:19:54.690Z,9.63
2018-09-15T06:22:24.199Z,10.17
2018-09-15T06:24:52.533Z,10.50
2018-09-15T06:27:20.865Z,9.53
2018-09-15T06:29:49.191Z,10.63
2018-09-15T06:32:17.540Z,11.13
2018-09-15T06:34:45.843Z,9.97
2018-09-15T06:37:14.227Z,9.73
2018-09-15T06:39:42.592Z,10.37
2018-09-15T06:42:10.921Z,9.83
2018-09-15T06:44:39.264Z,13.77
2018-09-15T06:47:07.618Z,10.63
2018-09-15T06:49:35.950Z,10.27
2018-09-15T06:52:04.294Z,9.40
2018-09-15T06:54:32.796Z,11.70
2018-09-15T06:57:01.206Z,10.10
2018-09-15T06:59:29.591Z,11.13
2018-09-15T07:01:57.930Z,10.77
2018-09-15T07:04:26.272Z,11.50
2018-09-15T07:06:54.597Z,11.67
2018-09-15T07:09:22.946Z,11.70
2018-09-15T07:11:51.296Z,11.27
2018-09-15T07:14:19.627Z,13.60
2018-09-15T07:16:47.993Z,11.93
2018-09-15T07:19:16.360Z,10.63
2018-09-15T07:21:44.698Z,10.93
2018-09-15T07:24:13.044Z,9.90
2018-09-15T07:26:41.566Z,10.67
2018-09-15T07:29:09.895Z,11.00
2018-09-15T07:31:38.276Z,10.07
2018-09-15T07:34:06.859Z,10.03
2018-09-15T07:36:35.186Z,8.67
2018-09-15T07:39:04.475Z,11.67
2018-09-15T07:41:32.794Z,9.23
2018-09-15T07:44:01.147Z,10.13
2018-09-15T07:46:29.480Z,11.57
2018-09-15T07:48:57.805Z,10.87
2018-09-15T07:51:26.176Z,11.23
2018-09-15T07:53:54.643Z,11.60
2018-09-15T07:56:23.187Z,9.97
2018-09-15T07:58:51.536Z,11.03
2018-09-15T08:01:19.858Z,9.77
2018-09-15T08:03:48.256Z,11.40
2018-09-15T08:06:16.568Z,7.73
2018-09-15T08:08:44.931Z,10.63
2018-09-15T08:11:13.273Z,14.43
2018-09-15T08:13:41.612Z,11.30
2018-09-15T08:16:09.938Z,7.93
2018-09-15T08:18:38.282Z,11.40
2018-09-15T08:21:06.615Z,10.37
2018-09-15T08:23:35.010Z,10.00
2018-09-15T08:26:03.323Z,9.40
2018-09-15T08:28:31.719Z,10.27
2018-09-15T08:31:00.051Z,8.43
2018-09-15T08:33:28.453Z,8.10
2018-09-15T08:35:56.981Z,6.77
2018-09-15T08:38:25.436Z,7.87
2018-09-15T08:40:53.741Z,8.50
2018-09-15T08:43:22.103Z,6.60
2018-09-15T08:45:52.183Z,8.67
2018-09-15T08:48:20.533Z,9.57
2018-09-15T08:50:48.873Z,9.00
2018-09-15T08:53:17.219Z,7.57
2018-09-15T08:55:45.651Z,7.60
2018-09-15T08:58:14.411Z,10.03
2018-09-15T09:00:42.777Z,7.07
2018-09-15T09:03:11.184Z,8.47
2018-09-15T09:05:39.543Z,7.73
2018-09-15T09:08:07.871Z,9.63
2018-09-15T09:10:36.338Z,7.70
2018-09-15T09:13:04.739Z,7.97
2018-09-15T09:15:33.084Z,10.40
2018-09-15T09:18:01.416Z,7.80
2018-09-15T09:20:29.741Z,6.93
2018-09-15T09:22:58.067Z,8.03
2018-09-15T09:25:26.415Z,6.17
2018-09-15T09:27:54.743Z,7.03
2018-09-15T09:30:23.088Z,7.47
2018-09-15T09:32:51.445Z,8.50
2018-09-15T09:35:19.789Z,9.80
2018-09-15T09:37:48.130Z,7.67
2018-09-15T09:40:16.474Z,11.00
2018-09-15T09:42:44.829Z,10.77
2018-09-15T09:45:13.197Z,8.07
2018-09-15T09:47:41.566Z,10.77
2018-09-15T09:50:09.872Z,11.20
2018-09-15T09:52:38.210Z,8.47
2018-09-15T09:55:06.629Z,9.07
2018-09-15T09:57:34.956Z,7.50
2018-09-15T10:00:03.362Z,9.13
2018-09-15T10:02:31.716Z,9.07
2018-09-15T10:05:00.150Z,10.00
2018-09-15T10:07:28.451Z,8.43
2018-09-15T10:09:56.795Z,9.07
2018-09-15T10:12:25.116Z,7.93
2018-09-15T10:14:53.454Z,9.77
2018-09-15T10:17:21.788Z,10.77
2018-09-15T10:19:50.130Z,8.43
2018-09-15T10:22:18.441Z,8.67
2018-09-15T10:24:46.809Z,9.10
2018-09-15T10:27:15.123Z,8.90
2018-09-15T10:29:43.448Z,8.43
2018-09-15T10:32:11.835Z,7.43
2018-09-15T10:34:40.142Z,8.20
2018-09-15T10:37:08.472Z,7.07
2018-09-15T10:39:37.007Z,7.13
2018-09-15T10:42:05.357Z,6.33
2018-09-15T10:44:33.659Z,7.23
2018-09-15T10:47:01.986Z,5.43
2018-09-15T10:49:30.328Z,7.37
2018-09-15T10:51:58.674Z,6.17
2018-09-15T10:54:26.986Z,7.87
2018-09-15T10:56:55.391Z,7.50
2018-09-15T10:59:23.707Z,6.47
2018-09-15T11:01:52.052Z,6.57
2018-09-15T11:04:20.413Z,7.37
2018-09-15T11:06:48.781Z,6.33
2018-09-15T11:09:17.101Z,4.83
2018-09-15T11:11:45.471Z,4.77
2018-09-15T11:14:13.785Z,5.20
2018-09-15T11:16:42.123Z,6.93
2018-09-15T11:19:10.466Z,8.10
2018-09-15T11:21:38.807Z,5.03
2018-09-15T11:24:07.140Z,6.13
2018-09-15T11:26:35.524Z,9.63
2018-09-15T11:29:03.897Z,6.33
2018-09-15T11:31:32.234Z,9.47
2018-09-15T11:34:00.570Z,8.03
2018-09-15T11:36:28.951Z,4.30
2018-09-15T11:38:57.266Z,3.70
2018-09-15T11:41:25.712Z,4.30
2018-09-15T11:43:54.128Z,4.13
2018-09-15T11:46:22.462Z,4.17
2018-09-15T11:48:50.794Z,4.83
2018-09-15T11:51:19.158Z,5.60
2018-09-15T11:53:47.646Z,5.70
2018-09-15T11:56:16.010Z,4.20
2018-09-15T11:58:44.373Z,4.07
2018-09-15T12:01:12.751Z,6.63
2018-09-15T12:03:41.117Z,5.10
2018-09-15T12:06:10.441Z,3.37
2018-09-15T12:08:38.900Z,5.60
2018-09-15T12:11:08.998Z,5.13
2018-09-15T12:13:37.456Z,5.27
2018-09-15T12:16:05.808Z,4.70
2018-09-15T12:18:34.175Z,6.23
2018-09-15T12:21:02.581Z,6.33
2018-09-15T12:23:31.065Z,5.77
2018-09-15T12:25:59.404Z,6.23
2018-09-15T12:28:28.892Z,9.47
2018-09-15T12:30:57.486Z,5.03
2018-09-15T12:33:25.987Z,6.03
2018-09-15T12:35:54.355Z,5.47
2018-09-15T12:38:22.749Z,5.33
2018-09-15T12:40:51.075Z,5.30
2018-09-15T12:43:19.483Z,3.97
2018-09-15T12:45:47.778Z,4.47
2018-09-15T12:48:16.161Z,4.43
2018-09-15T12:50:44.697Z,5.20
2018-09-15T12:53:13.059Z,5.47
2018-09-15T12:55:41.396Z,4.50
2018-09-15T12:58:09.860Z,4.43
2018-09-15T13:00:38.238Z,5.33
2018-09-15T13:03:06.622Z,4.87
2018-09-15T13:05:35.205Z,3.77
2018-09-15T13:08:03.611Z,4.43
2018-09-15T13:10:31.974Z,3.00
2018-09-15T13:13:00.369Z,4.97
2018-09-15T13:15:28.866Z,4.73
2018-09-15T13:17:57.130Z,4.53
2018-09-15T13:20:25.493Z,4.37
2018-09-15T13:22:53.844Z,3.60
2018-09-15T13:25:22.172Z,5.30
2018-09-15T13:27:50.578Z,3.80
2018-09-15T13:30:18.919Z,3.67
2018-09-15T13:32:47.324Z,5.00
2018-09-15T13:35:15.671Z,4.60
2018-09-15T13:37:44.115Z,3.80
2018-09-15T13:40:12.480Z,5.77
2018-09-15T13:42:40.820Z,3.00
2018-09-15T13:45:10.203Z,5.63
2018-09-15T13:47:38.539Z,4.53
2018-09-15T13:50:07.322Z,3.60
2018-09-15T13:52:35.682Z,3.87
2018-09-15T13:55:04.061Z,4.30
2018-09-15T13:57:32.482Z,3.90
2018-09-15T14:00:00.884Z,5.13
2018-09-15T14:02:29.227Z,5.20
2018-09-15T14:04:57.696Z,4.83
2018-09-15T14:07:25.981Z,2.47
2018-09-15T14:09:54.414Z,5.57
2018-09-15T14:12:22.823Z,4.80
2018-09-15T14:14:51.202Z,3.43
2018-09-15T14:17:19.581Z,3.63
2018-09-15T14:19:48.038Z,4.17
2018-09-15T14:22:16.531Z,3.43
2018-09-15T14:24:44.898Z,3.00
2018-09-15T14:27:13.242Z,5.40
2018-09-15T14:29:41.851Z,3.63
2018-09-15T14:32:10.256Z,2.97
2018-09-15T14:34:38.721Z,6.60
2018-09-15T14:37:07.149Z,5.70
2018-09-15T14:39:35.542Z,4.87
2018-09-15T14:42:03.963Z,3.30
2018-09-15T14:44:32.341Z,7.00
2018-09-15T14:47:01.079Z,4.07
2018-09-15T14:49:29.428Z,4.30
2018-09-15T14:51:57.757Z,4.47
2018-09-15T14:54:26.118Z,4.73
2018-09-15T14:56:54.477Z,3.77
2018-09-15T14:59:22.836Z,3.00
2018-09-15T15:01:51.188Z,5.20
2018-09-15T15:04:19.516Z,3.23
2018-09-15T15:06:47.876Z,4.33
2018-09-15T15:09:16.237Z,4.97
2018-09-15T15:11:44.633Z,4.53
2018-09-15T15:14:13.012Z,3.30
2018-09-15T15:16:41.342Z,3.87
2018-09-15T15:19:10.088Z,3.63
2018-09-15T15:21:38.511Z,2.23
2018-09-15T15:24:06.944Z,3.50
2018-09-15T15:26:35.411Z,2.90
2018-09-15T15:29:03.684Z,4.17
2018-09-15T15:31:32.161Z,3.43
2018-09-15T15:34:00.584Z,3.40
2018-09-15T15:36:28.932Z,4.33
2018-09-15T15:38:57.286Z,3.00
2018-09-15T15:41:25.649Z,5.80
2018-09-15T15:43:54.023Z,3.37
2018-09-15T15:46:22.390Z,4.90
2018-09-15T15:48:50.719Z,5.00
2018-09-15T15:51:19.092Z,2.30
2018-09-15T15:53:47.508Z,3.63
2018-09-15T15:56:16.402Z,3.47
2018-09-15T15:58:45.369Z,3.33
2018-09-15T16:01:13.868Z,4.47
2018-09-15T16:03:42.520Z,3.17
2018-09-15T16:06:11.003Z,2.73
2018-09-15T16:08:39.352Z,3.50
2018-09-15T16:11:07.791Z,3.93
2018-09-15T16:13:36.269Z,3.10
2018-09-15T16:16:04.703Z,3.43
2018-09-15T16:18:33.103Z,2.60
2018-09-15T16:21:01.447Z,3.07
2018-09-15T16:23:29.865Z,3.63
2018-09-15T16:25:58.236Z,4.17
2018-09-15T16:28:26.606Z,2.23
2018-09-15T16:30:54.934Z,2.03
2018-09-15T16:33:23.436Z,5.57
2018-09-15T16:35:51.759Z,4.77
2018-09-15T16:38:20.090Z,2.93
2018-09-15T16:40:48.463Z,7.17
2018-09-15T16:43:16.790Z,3.03
2018-09-15T16:45:46.222Z,2.73
2018-09-15T16:48:14.555Z,3.13
2018-09-15T16:50:42.892Z,4.63
2018-09-15T16:53:11.222Z,4.50
2018-09-15T16:55:39.594Z,3.57
2018-09-15T16:58:07.922Z,5.90
2018-09-15T17:00:36.419Z,5.83
2018-09-15T17:03:04.758Z,2.73
2018-09-15T17:05:33.122Z,7.17
2018-09-15T17:08:01.452Z,3.57
2018-09-15T17:10:29.815Z,4.03
2018-09-15T17:12:58.139Z,2.90
2018-09-15T17:15:26.483Z,2.37
2018-09-15T17:17:54.804Z,2.53
2018-09-15T17:20:23.151Z,3.50
2018-09-15T17:22:51.513Z,3.13
2018-09-15T17:25:19.902Z,3.63
2018-09-15T17:27:48.327Z,4.37
2018-09-15T17:30:16.666Z,4.60
2018-09-15T17:32:45.026Z,3.33
2018-09-15T17:35:13.482Z,3.57
2018-09-15T17:37:41.863Z,3.47
2018-09-15T17:40:10.261Z,2.37
2018-09-15T17:42:38.748Z,3.27
2018-09-15T17:45:07.155Z,5.43
2018-09-15T17:47:35.447Z,5.03
2018-09-15T17:50:03.870Z,5.40
2018-09-15T17:52:32.226Z,4.63
2018-09-15T17:55:00.641Z,3.70
2018-09-15T17:57:29.140Z,2.67
2018-09-15T17:59:57.475Z,2.90
2018-09-15T18:02:25.815Z,3.67
2018-09-15T18:04:54.139Z,4.53
2018-09-15T18:07:22.488Z,4.93
2018-09-15T18:09:50.938Z,4.03
2018-09-15T18:12:19.256Z,3.70
2018-09-15T18:14:47.640Z,4.00
2018-09-15T18:17:15.968Z,3.80
2018-09-15T18:19:44.279Z,3.17
2018-09-15T18:22:12.633Z,2.20
2018-09-15T18:24:40.980Z,2.93
2018-09-15T18:27:09.306Z,3.17
2018-09-15T18:29:37.785Z,4.93
2018-09-15T18:32:06.120Z,3.47
2018-09-15T18:34:34.444Z,3.20
2018-09-15T18:37:04.627Z,2.87
2018-09-15T18:39:32.948Z,3.67
2018-09-15T18:42:01.291Z,2.43
2018-09-15T18:44:29.670Z,3.00
2018-09-15T18:46:57.991Z,4.30
2018-09-15T18:49:26.297Z,4.30
2018-09-15T18:51:54.631Z,6.83
2018-09-15T18:54:22.983Z,1.83
2018-09-15T18:56:51.340Z,5.57
2018-09-15T18:59:19.710Z,3.50
2018-09-15T19:01:48.365Z,2.60
2018-09-15T19:04:16.686Z,2.87
2018-09-15T19:06:45.023Z,2.80
2018-09-15T19:09:13.351Z,3.17
2018-09-15T19:11:41.974Z,5.77
2018-09-15T19:14:10.420Z,2.87
2018-09-15T19:16:38.804Z,4.30
2018-09-15T19:19:07.167Z,3.07
2018-09-15T19:21:35.501Z,3.17
2018-09-15T19:24:03.839Z,4.13
2018-09-15T19:26:32.208Z,2.93
2018-09-15T19:29:00.583Z,3.83
2018-09-15T19:31:28.964Z,2.80
2018-09-15T19:33:57.291Z,5.40
2018-09-15T19:36:25.613Z,4.63
2018-09-15T19:38:54.026Z,4.07
2018-09-15T19:41:22.348Z,3.90
2018-09-15T19:43:50.714Z,3.07
2018-09-15T19:46:19.051Z,3.93
2018-09-15T19:48:47.774Z,6.17
2018-09-15T19:51:16.084Z,4.47
2018-09-15T19:53:44.588Z,5.67
2018-09-15T19:56:13.035Z,3.10
2018-09-15T19:58:41.369Z,2.73
2018-09-15T20:01:10.701Z,3.43
2018-09-15T20:03:40.159Z,5.17
2018-09-15T20:06:08.569Z,5.93
2018-09-15T20:08:37.859Z,4.43
2018-09-15T20:11:06.363Z,7.60
2018-09-15T20:13:34.781Z,5.00
2018-09-15T20:16:03.494Z,6.83
2018-09-15T20:18:30.849Z,4.30
2018-09-15T20:20:58.124Z,5.80
2018-09-15T20:23:26.463Z,6.03
2018-09-15T20:25:54.792Z,4.87
2018-09-15T20:28:23.139Z,3.63
2018-09-15T20:30:51.473Z,5.47
2018-09-15T20:33:19.972Z,6.20
2018-09-15T20:35:48.180Z,3.50
2018-09-15T20:38:16.538Z,4.07
2018-09-15T20:40:44.852Z,5.33
2018-09-15T20:43:13.203Z,3.10
2018-09-15T20:45:41.530Z,4.63
2018-09-15T20:48:09.866Z,3.27
2018-09-15T20:50:38.173Z,4.23
2018-09-15T20:53:06.588Z,4.67
2018-09-15T20:55:34.914Z,4.70
2018-09-15T20:58:03.238Z,3.37
2018-09-15T21:00:31.601Z,2.57
2018-09-15T21:03:00.058Z,3.77
2018-09-15T21:05:28.390Z,6.20
2018-09-15T21:07:56.709Z,5.40
2018-09-15T21:10:25.907Z,3.03
2018-09-15T21:12:54.236Z,3.13
2018-09-15T21:15:22.574Z,5.07
2018-09-15T21:17:50.886Z,4.37
2018-09-15T21:20:19.227Z,5.07
2018-09-15T21:22:47.538Z,3.97
2018-09-15T21:25:15.867Z,2.87
2018-09-15T21:27:44.220Z,4.17
2018-09-15T21:30:12.574Z,3.87
2018-09-15T21:32:40.898Z,2.73
2018-09-15T21:35:09.243Z,4.43
2018-09-15T21:37:37.550Z,3.00
2018-09-15T21:40:06.078Z,3.83
2018-09-15T21:42:34.418Z,3.87
2018-09-15T21:45:02.753Z,2.87
2018-09-15T21:47:31.223Z,3.73
2018-09-15T21:49:59.629Z,2.70
2018-09-15T21:52:27.991Z,5.33
2018-09-15T21:54:56.312Z,2.83
2018-09-15T21:57:24.636Z,4.57
2018-09-15T21:59:52.979Z,4.60
2018-09-15T22:02:22.869Z,3.50
2018-09-15T22:04:51.673Z,5.43
2018-09-15T22:07:20.099Z,3.83
2018-09-15T22:09:48.424Z,4.73
2018-09-15T22:12:16.772Z,4.07
2018-09-15T22:14:45.114Z,4.70
2018-09-15T22:17:13.434Z,4.03
2018-09-15T22:19:41.802Z,5.40
2018-09-15T22:22:10.150Z,6.00
2018-09-15T22:24:38.639Z,4.17
2018-09-15T22:27:07.008Z,3.60
2018-09-15T22:29:35.357Z,7.87
2018-09-15T22:32:03.705Z,4.23
2018-09-15T22:34:32.089Z,4.90
2018-09-15T22:37:00.461Z,5.20
2018-09-15T22:39:28.786Z,4.60
2018-09-15T22:41:57.137Z,4.33
2018-09-15T22:44:25.517Z,5.47
2018-09-15T22:46:53.880Z,4.13
2018-09-15T22:49:23.634Z,5.47
2018-09-15T22:51:51.986Z,6.10
2018-09-15T22:54:20.338Z,4.83
2018-09-15T22:56:48.701Z,4.43
2018-09-15T22:59:17.011Z,4.93
2018-09-15T23:01:45.388Z,3.57
2018-09-15T23:04:14.829Z,5.23
2018-09-15T23:06:43.195Z,4.13
2018-09-15T23:09:12.195Z,3.87
2018-09-15T23:11:40.572Z,3.70
2018-09-15T23:14:08.900Z,5.50
2018-09-15T23:16:37.273Z,4.47
2018-09-15T23:19:05.711Z,4.00
2018-09-15T23:21:34.022Z,5.23
2018-09-15T23:24:02.352Z,3.27
2018-09-15T23:26:30.690Z,3.60
2018-09-15T23:28:59.266Z,4.23
2018-09-15T23:31:27.601Z,3.10
2018-09-15T23:33:55.931Z,4.70
2018-09-15T23:36:24.303Z,4.37
2018-09-15T23:38:52.619Z,4.17
2018-09-15T23:41:20.974Z,3.70
2018-09-15T23:43:49.337Z,3.53
2018-09-15T23:46:17.678Z,5.63
2018-09-15T23:48:46.036Z,4.00
2018-09-15T23:51:14.392Z,4.73
2018-09-15T23:53:42.718Z,6.17
2018-09-15T23:56:11.067Z,3.50
2018-09-15T23:58:39.382Z,4.33
